createdAt,value
2023-05-21T00:02:15.575Z,99.90
2023-05-21T00:07:19.018Z,99.90
2023-05-21T00:12:21.942Z,99.90
2023-05-21T00:17:26.463Z,99.90
2023-05-21T00:22:29.422Z,99.90
2023-05-21T00:27:32.178Z,99.90
2023-05-21T00:32:34.926Z,99.90
2023-05-21T00:37:38.396Z,99.90
2023-05-21T00:42:42.583Z,99.90
2023-05-21T00:47:46.177Z,99.90
2023-05-21T00:52:49.302Z,99.90
2023-05-21T00:57:52.304Z,99.90
2023-05-21T01:02:55.617Z,99.90
2023-05-21T01:07:59.278Z,99.90
2023-05-21T01:13:02.358Z,99.90
2023-05-21T01:18:06.301Z,99.90
2023-05-21T01:23:09.294Z,99.90
2023-05-21T01:28:12.398Z,99.90
2023-05-21T01:33:18.184Z,99.90
2023-05-21T01:38:26.305Z,99.90
2023-05-21T01:43:31.914Z,99.90
2023-05-21T01:48:36.321Z,99.90
2023-05-21T01:53:41.827Z,99.90
2023-05-21T01:58:44.746Z,99.90
2023-05-21T02:03:47.683Z,99.90
2023-05-21T02:08:50.578Z,99.90
2023-05-21T02:13:54.752Z,99.90
2023-05-21T02:18:58.211Z,99.90
2023-05-21T02:24:01.223Z,99.90
2023-05-21T02:29:04.510Z,99.90
2023-05-21T02:34:09.065Z,99.90
2023-05-21T02:39:12.064Z,99.90
2023-05-21T02:44:14.950Z,99.90
2023-05-21T02:49:17.665Z,99.90
2023-05-21T02:54:22.799Z,99.90
2023-05-21T02:59:25.456Z,99.90
2023-05-21T03:04:28.646Z,99.90
2023-05-21T03:09:31.579Z,99.90
2023-05-21T03:14:35.647Z,99.90
2023-05-21T03:19:38.258Z,99.90
2023-05-21T03:24:41.616Z,99.90
2023-05-21T03:29:46.173Z,99.90
2023-05-21T03:34:49.049Z,99.90
2023-05-21T03:39:54.152Z,99.90
2023-05-21T03:44:57.020Z,99.90
2023-05-21T03:50:18.496Z,99.90
2023-05-21T03:55:21.329Z,99.90
2023-05-21T04:00:24.048Z,99.90
2023-05-21T04:05:26.721Z,99.90
2023-05-21T04:10:29.453Z,99.90
2023-05-21T04:15:32.739Z,99.90
2023-05-21T04:20:35.362Z,99.90
2023-05-21T04:25:38.940Z,99.90
2023-05-21T04:30:42.278Z,99.90
2023-05-21T04:35:46.524Z,99.90
2023-05-21T04:40:51.243Z,99.90
2023-05-21T04:45:57.452Z,99.90
2023-05-21T04:51:00.860Z,99.90
2023-05-21T04:56:04.248Z,99.90
2023-05-21T05:01:09.134Z,99.90
2023-05-21T05:06:12.124Z,99.90
2023-05-21T05:11:15.270Z,99.90
2023-05-21T05:16:18.237Z,99.90
2023-05-21T05:21:22.921Z,99.90
2023-05-21T05:26:26.390Z,99.90
2023-05-21T05:31:29.378Z,99.90
2023-05-21T05:36:32.551Z,99.90
2023-05-21T05:41:35.440Z,99.90
2023-05-21T05:46:38.551Z,99.90
2023-05-21T05:51:41.854Z,99.90
2023-05-21T05:56:44.690Z,99.90
2023-05-21T06:01:47.559Z,99.90
2023-05-21T06:06:51.184Z,99.90
2023-05-21T06:11:54.245Z,99.90
2023-05-21T06:16:57.286Z,99.90
2023-05-21T06:22:01.735Z,99.90
2023-05-21T06:27:05.386Z,99.90
2023-05-21T06:32:09.597Z,99.90
2023-05-21T06:37:12.464Z,99.90
2023-05-21T06:42:15.988Z,99.90
2023-05-21T06:47:37.449Z,99.90
2023-05-21T06:52:40.514Z,99.90
2023-05-21T06:57:44.058Z,99.90
2023-05-21T07:02:47.004Z,99.90
2023-05-21T07:07:50.913Z,99.90
2023-05-21T07:12:54.191Z,99.90
2023-05-21T07:17:57.279Z,99.90
2023-05-21T07:23:00.558Z,99.90
2023-05-21T07:28:06.427Z,99.90
2023-05-21T07:33:09.836Z,99.90
2023-05-21T07:38:13.008Z,99.90
2023-05-21T07:43:15.833Z,99.90
2023-05-21T07:48:19.556Z,99.90
2023-05-21T07:53:32.776Z,99.90
2023-05-21T07:58:40.773Z,99.90
2023-05-21T08:03:44.117Z,99.90
2023-05-21T08:08:47.162Z,99.90
2023-05-21T08:13:50.149Z,99.90
2023-05-21T08:18:53.346Z,99.90
2023-05-21T08:23:56.491Z,99.90
2023-05-21T08:28:59.812Z,99.90
2023-05-21T08:34:03.055Z,99.90
2023-05-21T08:39:17.018Z,99.90
2023-05-21T08:44:24.631Z,99.90
2023-05-21T08:49:31.529Z,99.90
2023-05-21T08:54:36.283Z,99.90
2023-05-21T08:59:43.589Z,99.90
2023-05-21T09:04:59.256Z,97.40
2023-05-21T09:10:08.643Z,91.60
2023-05-21T09:15:12.468Z,93.10
2023-05-21T09:20:16.795Z,93.60
2023-05-21T09:25:29.982Z,92.60
2023-05-21T09:30:38.096Z,88.30
2023-05-21T09:35:47.667Z,71.00
2023-05-21T09:40:52.026Z,67.50
2023-05-21T09:45:57.324Z,80.30
2023-05-21T09:51:18.165Z,69.90
2023-05-21T09:56:40.564Z,65.10
2023-05-21T10:01:44.386Z,57.80
2023-05-21T10:06:48.543Z,53.60
2023-05-21T10:11:54.732Z,49.80
2023-05-21T10:16:57.751Z,47.40
2023-05-21T10:22:01.827Z,40.00
2023-05-21T10:27:05.293Z,34.70
2023-05-21T10:32:08.466Z,28.70
2023-05-21T10:37:13.964Z,29.30
2023-05-21T10:42:32.220Z,30.70
2023-05-21T10:47:56.442Z,29.40
2023-05-21T10:53:18.377Z,29.00
2023-05-21T10:58:39.818Z,26.80
2023-05-21T11:03:43.111Z,26.00
2023-05-21T11:08:48.509Z,26.90
2023-05-21T11:13:51.452Z,26.00
2023-05-21T11:18:55.283Z,30.10
2023-05-21T11:24:02.860Z,31.00
2023-05-21T11:29:05.593Z,33.90
2023-05-21T11:34:11.718Z,37.20
2023-05-21T11:39:22.419Z,36.70
2023-05-21T11:44:47.072Z,40.30
2023-05-21T11:49:49.920Z,30.40
2023-05-21T11:54:57.644Z,33.80
2023-05-21T12:00:01.970Z,30.20
2023-05-21T12:05:07.504Z,27.40
2023-05-21T12:10:11.109Z,28.50
2023-05-21T12:15:14.191Z,31.40
2023-05-21T12:20:17.412Z,25.80
2023-05-21T12:25:23.204Z,24.20
2023-05-21T12:30:26.858Z,24.00
2023-05-21T12:35:32.106Z,27.00
2023-05-21T12:40:40.034Z,27.80
2023-05-21T12:45:43.939Z,28.50
2023-05-21T12:50:46.794Z,24.40
2023-05-21T12:55:49.591Z,24.50
2023-05-21T13:00:56.775Z,27.10
2023-05-21T13:06:00.487Z,23.30
2023-05-21T13:11:04.390Z,27.50
2023-05-21T13:16:07.661Z,24.00
2023-05-21T13:21:10.628Z,23.90
2023-05-21T13:26:13.516Z,22.30
2023-05-21T13:31:16.615Z,21.70
2023-05-21T13:36:19.775Z,23.20
2023-05-21T13:41:22.915Z,22.20
2023-05-21T13:46:26.007Z,22.40
2023-05-21T13:51:38.523Z,22.80
2023-05-21T13:56:42.255Z,21.70
2023-05-21T14:01:45.745Z,21.70
2023-05-21T14:06:48.864Z,20.60
2023-05-21T14:11:51.735Z,22.40
2023-05-21T14:16:54.743Z,21.00
2023-05-21T14:21:58.088Z,18.80
2023-05-21T14:27:01.064Z,18.80
2023-05-21T14:32:03.991Z,20.30
2023-05-21T14:37:07.276Z,20.00
2023-05-21T14:42:10.254Z,23.20
2023-05-21T14:47:13.148Z,19.50
2023-05-21T14:52:15.975Z,20.60
2023-05-21T14:57:18.838Z,22.20
2023-05-21T15:02:22.110Z,19.90
2023-05-21T15:07:24.993Z,19.50
2023-05-21T15:12:27.841Z,21.20
2023-05-21T15:17:30.653Z,20.10
2023-05-21T15:22:34.775Z,18.30
2023-05-21T15:27:37.966Z,19.50
2023-05-21T15:32:41.123Z,19.70
2023-05-21T15:37:45.815Z,19.60
2023-05-21T15:42:48.998Z,20.90
2023-05-21T15:47:52.225Z,19.10
2023-05-21T15:52:55.245Z,20.50
2023-05-21T15:57:59.584Z,19.00
2023-05-21T16:03:04.204Z,21.10
2023-05-21T16:08:07.293Z,22.80
2023-05-21T16:13:10.127Z,23.50
2023-05-21T16:18:12.916Z,22.30
2023-05-21T16:23:15.860Z,23.70
2023-05-21T16:28:18.759Z,22.80
2023-05-21T16:33:21.610Z,24.40
2023-05-21T16:38:24.625Z,24.80
2023-05-21T16:43:27.562Z,27.00
2023-05-21T16:48:33.843Z,26.90
2023-05-21T16:53:37.587Z,27.20
2023-05-21T16:58:40.404Z,28.50
2023-05-21T17:03:43.622Z,29.60
2023-05-21T17:08:46.565Z,30.30
2023-05-21T17:13:49.417Z,32.40
2023-05-21T17:18:52.332Z,31.30
2023-05-21T17:23:55.321Z,31.60
2023-05-21T17:28:58.172Z,32.60
2023-05-21T17:34:01.196Z,31.60
2023-05-21T17:39:04.214Z,32.50
2023-05-21T17:44:07.016Z,34.90
2023-05-21T17:49:09.907Z,36.60
2023-05-21T17:54:12.744Z,41.00
2023-05-21T17:59:16.868Z,42.50
2023-05-21T18:04:20.044Z,41.60
2023-05-21T18:09:23.176Z,42.20
2023-05-21T18:14:26.166Z,48.30
2023-05-21T18:19:30.275Z,48.90
2023-05-21T18:24:33.277Z,52.00
2023-05-21T18:29:37.097Z,57.60
2023-05-21T18:34:42.010Z,61.10
2023-05-21T18:39:44.906Z,82.70
2023-05-21T18:44:50.902Z,99.80
2023-05-21T18:49:53.645Z,99.90
2023-05-21T18:54:56.555Z,99.90
2023-05-21T19:00:00.359Z,99.90
2023-05-21T19:05:03.760Z,99.90
2023-05-21T19:10:07.616Z,99.90
2023-05-21T19:15:11.102Z,99.90
2023-05-21T19:20:26.534Z,99.90
2023-05-21T19:25:29.217Z,99.90
2023-05-21T19:30:35.100Z,99.90
2023-05-21T19:35:38.413Z,99.90
2023-05-21T19:40:41.520Z,99.90
2023-05-21T19:45:44.465Z,99.90
2023-05-21T19:50:47.469Z,99.90
2023-05-21T19:55:50.418Z,99.90
2023-05-21T20:00:56.170Z,99.90
2023-05-21T20:05:59.080Z,99.90
2023-05-21T20:11:01.932Z,99.90
2023-05-21T20:16:05.057Z,99.90
2023-05-21T20:21:07.864Z,99.90
2023-05-21T20:26:10.928Z,99.90
2023-05-21T20:31:14.077Z,99.90
2023-05-21T20:36:17.931Z,99.90
2023-05-21T20:41:22.095Z,99.90
2023-05-21T20:46:26.016Z,99.90
2023-05-21T20:51:28.782Z,99.90
2023-05-21T20:56:41.596Z,99.90
2023-05-21T21:01:45.611Z,99.90
2023-05-21T21:06:48.622Z,99.90
2023-05-21T21:11:51.785Z,99.90
2023-05-21T21:16:54.790Z,99.90
2023-05-21T21:21:57.803Z,99.90
2023-05-21T21:27:00.487Z,99.90
2023-05-21T21:32:03.324Z,99.90
2023-05-21T21:37:06.232Z,99.90
2023-05-21T21:42:09.221Z,99.90
2023-05-21T21:47:12.420Z,99.90
2023-05-21T21:52:15.386Z,99.90
2023-05-21T21:57:18.248Z,99.90
2023-05-21T22:02:21.107Z,99.90
2023-05-21T22:07:24.098Z,99.90
2023-05-21T22:12:27.385Z,99.90
2023-05-21T22:17:30.184Z,99.90
2023-05-21T22:22:32.994Z,99.90
2023-05-21T22:27:36.750Z,99.90
2023-05-21T22:32:40.304Z,99.90
2023-05-21T22:37:43.157Z,99.90
2023-05-21T22:42:47.376Z,99.90
2023-05-21T22:47:52.247Z,99.90
2023-05-21T22:52:55.386Z,99.90
2023-05-21T22:57:58.218Z,99.90
2023-05-21T23:03:01.239Z,99.90
2023-05-21T23:08:04.099Z,99.90
2023-05-21T23:13:06.967Z,99.90
2023-05-21T23:18:10.367Z,99.90
2023-05-21T23:23:13.101Z,99.90
2023-05-21T23:28:15.808Z,99.90
2023-05-21T23:33:18.987Z,99.90
2023-05-21T23:38:21.842Z,99.90
2023-05-21T23:43:24.674Z,99.90
2023-05-21T23:48:27.448Z,99.90
2023-05-21T23:53:30.229Z,99.90
2023-05-21T23:58:32.891Z,99.90
